sensor_id;sensor_type;location;lat;lon;timestamp;P1;durP1;ratioP1;P2;durP2;ratioP2
7179;SDS011;3631;42.152;24.756;2022-07-29T00:00:15;3.90;;;3.65;;
7179;SDS011;3631;42.152;24.756;2022-07-29T00:02:42;4.43;;;3.58;;
7179;SDS011;3631;42.152;24.756;2022-07-29T00:05:09;3.83;;;3.60;;
7179;SDS011;3631;42.152;24.756;2022-07-29T00:07:38;4.32;;;4.00;;
7179;SDS011;3631;42.152;24.756;2022-07-29T00:10:05;3.80;;;3.60;;
7179;SDS011;3631;42.152;24.756;2022-07-29T00:12:32;4.22;;;3.88;;
7179;SDS011;3631;42.152;24.756;2022-07-29T00:15:01;5.20;;;3.78;;
7179;SDS011;3631;42.152;24.756;2022-07-29T00:17:28;4.60;;;3.83;;
7179;SDS011;3631;42.152;24.756;2022-07-29T00:19:55;4.35;;;4.05;;
7179;SDS011;3631;42.152;24.756;2022-07-29T00:22:22;4.07;;;3.72;;
7179;SDS011;3631;42.152;24.756;2022-07-29T00:24:49;4.35;;;3.97;;
7179;SDS011;3631;42.152;24.756;2022-07-29T00:27:16;4.78;;;4.30;;
7179;SDS011;3631;42.152;24.756;2022-07-29T00:29:43;4.15;;;3.85;;
7179;SDS011;3631;42.152;24.756;2022-07-29T00:32:11;5.00;;;4.22;;
7179;SDS011;3631;42.152;24.756;2022-07-29T00:34:38;4.68;;;4.47;;
7179;SDS011;3631;42.152;24.756;2022-07-29T00:37:23;4.70;;;3.75;;
7179;SDS011;3631;42.152;24.756;2022-07-29T00:39:50;6.10;;;4.65;;
7179;SDS011;3631;42.152;24.756;2022-07-29T00:42:16;4.63;;;4.32;;
7179;SDS011;3631;42.152;24.756;2022-07-29T00:44:43;7.95;;;4.47;;
7179;SDS011;3631;42.152;24.756;2022-07-29T00:47:11;4.55;;;4.05;;
7179;SDS011;3631;42.152;24.756;2022-07-29T00:49:39;5.45;;;4.80;;
7179;SDS011;3631;42.152;24.756;2022-07-29T00:52:07;4.80;;;4.50;;
7179;SDS011;3631;42.152;24.756;2022-07-29T00:54:35;5.75;;;4.65;;
7179;SDS011;3631;42.152;24.756;2022-07-29T00:57:04;6.80;;;4.93;;
7179;SDS011;3631;42.152;24.756;2022-07-29T00:59:32;4.65;;;4.22;;
7179;SDS011;3631;42.152;24.756;2022-07-29T01:01:59;6.00;;;5.32;;
7179;SDS011;3631;42.152;24.756;2022-07-29T01:04:27;6.05;;;5.35;;
7179;SDS011;3631;42.152;24.756;2022-07-29T01:06:55;6.05;;;5.50;;
7179;SDS011;3631;42.152;24.756;2022-07-29T01:09:23;5.07;;;4.78;;
7179;SDS011;3631;42.152;24.756;2022-07-29T01:11:50;7.20;;;5.78;;
7179;SDS011;3631;42.152;24.756;2022-07-29T01:14:18;5.63;;;5.22;;
7179;SDS011;3631;42.152;24.756;2022-07-29T01:16:45;6.07;;;5.57;;
7179;SDS011;3631;42.152;24.756;2022-07-29T01:19:21;6.15;;;5.75;;
7179;SDS011;3631;42.152;24.756;2022-07-29T01:22:19;6.07;;;5.63;;
7179;SDS011;3631;42.152;24.756;2022-07-29T01:25:11;10.32;;;5.40;;
7179;SDS011;3631;42.152;24.756;2022-07-29T01:28:08;6.40;;;5.78;;
7179;SDS011;3631;42.152;24.756;2022-07-29T01:30:50;5.75;;;5.28;;
7179;SDS011;3631;42.152;24.756;2022-07-29T01:33:19;6.30;;;5.68;;
7179;SDS011;3631;42.152;24.756;2022-07-29T01:36:09;6.47;;;5.97;;
7179;SDS011;3631;42.152;24.756;2022-07-29T01:38:39;6.82;;;6.20;;
7179;SDS011;3631;42.152;24.756;2022-07-29T01:41:09;7.57;;;6.88;;
7179;SDS011;3631;42.152;24.756;2022-07-29T01:43:42;7.88;;;7.03;;
7179;SDS011;3631;42.152;24.756;2022-07-29T01:46:27;7.35;;;6.75;;
7179;SDS011;3631;42.152;24.756;2022-07-29T01:48:59;6.82;;;6.43;;
7179;SDS011;3631;42.152;24.756;2022-07-29T01:51:31;7.93;;;7.30;;
7179;SDS011;3631;42.152;24.756;2022-07-29T01:54:03;8.10;;;7.30;;
7179;SDS011;3631;42.152;24.756;2022-07-29T01:56:39;8.68;;;7.93;;
7179;SDS011;3631;42.152;24.756;2022-07-29T01:59:08;8.40;;;7.72;;
7179;SDS011;3631;42.152;24.756;2022-07-29T02:01:38;9.32;;;7.80;;
7179;SDS011;3631;42.152;24.756;2022-07-29T02:04:08;10.07;;;7.50;;
7179;SDS011;3631;42.152;24.756;2022-07-29T02:06:38;8.63;;;7.47;;
7179;SDS011;3631;42.152;24.756;2022-07-29T02:09:07;8.05;;;7.03;;
7179;SDS011;3631;42.152;24.756;2022-07-29T02:11:36;8.45;;;7.43;;
7179;SDS011;3631;42.152;24.756;2022-07-29T02:14:04;9.48;;;7.90;;
7179;SDS011;3631;42.152;24.756;2022-07-29T02:16:33;13.07;;;7.38;;
7179;SDS011;3631;42.152;24.756;2022-07-29T02:19:04;8.68;;;7.03;;
7179;SDS011;3631;42.152;24.756;2022-07-29T02:21:33;10.45;;;6.75;;
7179;SDS011;3631;42.152;24.756;2022-07-29T02:24:02;6.35;;;5.85;;
7179;SDS011;3631;42.152;24.756;2022-07-29T02:26:31;7.07;;;6.45;;
7179;SDS011;3631;42.152;24.756;2022-07-29T02:28:59;7.43;;;6.43;;
7179;SDS011;3631;42.152;24.756;2022-07-29T02:31:29;6.72;;;6.13;;
7179;SDS011;3631;42.152;24.756;2022-07-29T02:33:59;7.40;;;6.80;;
7179;SDS011;3631;42.152;24.756;2022-07-29T02:36:30;11.43;;;6.78;;
7179;SDS011;3631;42.152;24.756;2022-07-29T02:38:59;7.38;;;6.68;;
7179;SDS011;3631;42.152;24.756;2022-07-29T02:41:28;12.88;;;6.55;;
7179;SDS011;3631;42.152;24.756;2022-07-29T02:44:02;7.93;;;6.32;;
7179;SDS011;3631;42.152;24.756;2022-07-29T02:46:33;7.10;;;6.40;;
7179;SDS011;3631;42.152;24.756;2022-07-29T02:49:04;6.75;;;6.15;;
7179;SDS011;3631;42.152;24.756;2022-07-29T02:51:40;6.65;;;6.03;;
7179;SDS011;3631;42.152;24.756;2022-07-29T02:54:09;10.43;;;6.15;;
7179;SDS011;3631;42.152;24.756;2022-07-29T02:56:37;7.70;;;5.97;;
7179;SDS011;3631;42.152;24.756;2022-07-29T02:59:09;8.52;;;5.60;;
7179;SDS011;3631;42.152;24.756;2022-07-29T03:01:39;8.20;;;5.97;;
7179;SDS011;3631;42.152;24.756;2022-07-29T03:04:09;6.20;;;5.63;;
7179;SDS011;3631;42.152;24.756;2022-07-29T03:06:40;7.15;;;6.15;;
7179;SDS011;3631;42.152;24.756;2022-07-29T03:09:08;6.68;;;6.00;;
7179;SDS011;3631;42.152;24.756;2022-07-29T03:11:36;6.78;;;5.68;;
7179;SDS011;3631;42.152;24.756;2022-07-29T03:14:05;8.05;;;6.30;;
7179;SDS011;3631;42.152;24.756;2022-07-29T03:16:33;9.30;;;6.60;;
7179;SDS011;3631;42.152;24.756;2022-07-29T03:19:02;5.97;;;5.53;;
7179;SDS011;3631;42.152;24.756;2022-07-29T03:21:30;8.73;;;6.10;;
7179;SDS011;3631;42.152;24.756;2022-07-29T03:23:58;7.07;;;6.40;;
7179;SDS011;3631;42.152;24.756;2022-07-29T03:26:25;10.93;;;5.90;;
7179;SDS011;3631;42.152;24.756;2022-07-29T03:28:52;7.90;;;6.57;;
7179;SDS011;3631;42.152;24.756;2022-07-29T03:31:19;5.95;;;5.45;;
7179;SDS011;3631;42.152;24.756;2022-07-29T03:33:46;8.43;;;5.78;;
7179;SDS011;3631;42.152;24.756;2022-07-29T03:36:13;10.10;;;5.95;;
7179;SDS011;3631;42.152;24.756;2022-07-29T03:38:40;10.95;;;5.80;;
7179;SDS011;3631;42.152;24.756;2022-07-29T03:41:11;6.20;;;5.60;;
7179;SDS011;3631;42.152;24.756;2022-07-29T03:43:40;7.20;;;6.43;;
7179;SDS011;3631;42.152;24.756;2022-07-29T03:46:09;9.40;;;6.72;;
7179;SDS011;3631;42.152;24.756;2022-07-29T03:48:39;6.10;;;5.60;;
7179;SDS011;3631;42.152;24.756;2022-07-29T03:51:11;6.47;;;5.95;;
7179;SDS011;3631;42.152;24.756;2022-07-29T03:53:39;5.97;;;5.47;;
7179;SDS011;3631;42.152;24.756;2022-07-29T03:56:06;10.18;;;5.82;;
7179;SDS011;3631;42.152;24.756;2022-07-29T03:58:36;6.03;;;5.63;;
7179;SDS011;3631;42.152;24.756;2022-07-29T04:01:04;7.90;;;6.35;;
7179;SDS011;3631;42.152;24.756;2022-07-29T04:03:31;7.15;;;6.38;;
7179;SDS011;3631;42.152;24.756;2022-07-29T04:05:58;7.63;;;6.90;;
7179;SDS011;3631;42.152;24.756;2022-07-29T04:08:27;10.80;;;6.97;;
7179;SDS011;3631;42.152;24.756;2022-07-29T04:10:54;9.48;;;6.80;;
7179;SDS011;3631;42.152;24.756;2022-07-29T04:13:21;7.18;;;6.28;;
7179;SDS011;3631;42.152;24.756;2022-07-29T04:15:49;9.70;;;6.35;;
7179;SDS011;3631;42.152;24.756;2022-07-29T04:18:16;13.50;;;7.20;;
7179;SDS011;3631;42.152;24.756;2022-07-29T04:20:43;7.05;;;6.35;;
7179;SDS011;3631;42.152;24.756;2022-07-29T04:23:10;7.63;;;6.93;;
7179;SDS011;3631;42.152;24.756;2022-07-29T04:25:37;7.57;;;6.13;;
7179;SDS011;3631;42.152;24.756;2022-07-29T04:28:05;6.43;;;5.93;;
7179;SDS011;3631;42.152;24.756;2022-07-29T04:30:32;10.52;;;6.65;;
7179;SDS011;3631;42.152;24.756;2022-07-29T04:33:02;8.13;;;7.50;;
7179;SDS011;3631;42.152;24.756;2022-07-29T04:35:30;9.85;;;7.82;;
7179;SDS011;3631;42.152;24.756;2022-07-29T04:38:00;12.13;;;7.30;;
7179;SDS011;3631;42.152;24.756;2022-07-29T04:40:27;7.70;;;6.78;;
7179;SDS011;3631;42.152;24.756;2022-07-29T04:42:54;7.38;;;6.65;;
7179;SDS011;3631;42.152;24.756;2022-07-29T04:45:21;6.95;;;6.32;;
7179;SDS011;3631;42.152;24.756;2022-07-29T04:47:48;10.35;;;6.85;;
7179;SDS011;3631;42.152;24.756;2022-07-29T04:50:16;6.57;;;5.90;;
7179;SDS011;3631;42.152;24.756;2022-07-29T04:52:43;7.03;;;6.43;;
7179;SDS011;3631;42.152;24.756;2022-07-29T04:55:10;7.72;;;6.78;;
7179;SDS011;3631;42.152;24.756;2022-07-29T04:57:37;6.30;;;5.65;;
7179;SDS011;3631;42.152;24.756;2022-07-29T05:00:05;5.90;;;5.40;;
7179;SDS011;3631;42.152;24.756;2022-07-29T05:02:33;4.97;;;4.72;;
7179;SDS011;3631;42.152;24.756;2022-07-29T05:05:00;6.18;;;5.60;;
7179;SDS011;3631;42.152;24.756;2022-07-29T05:07:28;6.70;;;6.13;;
7179;SDS011;3631;42.152;24.756;2022-07-29T05:09:55;8.35;;;6.10;;
7179;SDS011;3631;42.152;24.756;2022-07-29T05:12:23;12.15;;;6.53;;
7179;SDS011;3631;42.152;24.756;2022-07-29T05:14:50;7.80;;;6.55;;
7179;SDS011;3631;42.152;24.756;2022-07-29T05:17:16;7.20;;;6.57;;
7179;SDS011;3631;42.152;24.756;2022-07-29T05:19:43;8.50;;;6.30;;
7179;SDS011;3631;42.152;24.756;2022-07-29T05:22:10;9.05;;;6.90;;
7179;SDS011;3631;42.152;24.756;2022-07-29T05:24:39;6.88;;;6.30;;
7179;SDS011;3631;42.152;24.756;2022-07-29T05:27:06;7.20;;;6.50;;
7179;SDS011;3631;42.152;24.756;2022-07-29T05:29:33;11.52;;;6.72;;
7179;SDS011;3631;42.152;24.756;2022-07-29T05:32:00;8.68;;;6.95;;
7179;SDS011;3631;42.152;24.756;2022-07-29T05:34:27;8.13;;;7.43;;
7179;SDS011;3631;42.152;24.756;2022-07-29T05:36:54;6.97;;;6.35;;
7179;SDS011;3631;42.152;24.756;2022-07-29T05:39:21;8.52;;;6.75;;
7179;SDS011;3631;42.152;24.756;2022-07-29T05:41:49;7.60;;;7.13;;
7179;SDS011;3631;42.152;24.756;2022-07-29T05:44:16;7.93;;;6.40;;
7179;SDS011;3631;42.152;24.756;2022-07-29T05:46:43;7.07;;;6.50;;
7179;SDS011;3631;42.152;24.756;2022-07-29T05:49:10;7.78;;;7.07;;
7179;SDS011;3631;42.152;24.756;2022-07-29T05:51:37;10.35;;;9.35;;
7179;SDS011;3631;42.152;24.756;2022-07-29T05:54:04;9.43;;;6.78;;
7179;SDS011;3631;42.152;24.756;2022-07-29T05:56:31;7.35;;;6.85;;
7179;SDS011;3631;42.152;24.756;2022-07-29T05:58:59;7.32;;;6.72;;
7179;SDS011;3631;42.152;24.756;2022-07-29T06:01:26;6.40;;;6.03;;
7179;SDS011;3631;42.152;24.756;2022-07-29T06:03:53;8.38;;;7.03;;
7179;SDS011;3631;42.152;24.756;2022-07-29T06:06:20;6.93;;;6.38;;
7179;SDS011;3631;42.152;24.756;2022-07-29T06:08:47;7.15;;;6.45;;
7179;SDS011;3631;42.152;24.756;2022-07-29T06:11:14;10.43;;;9.48;;
7179;SDS011;3631;42.152;24.756;2022-07-29T06:13:41;7.50;;;7.00;;
7179;SDS011;3631;42.152;24.756;2022-07-29T06:16:09;7.90;;;7.40;;
7179;SDS011;3631;42.152;24.756;2022-07-29T06:18:36;7.53;;;6.97;;
7179;SDS011;3631;42.152;24.756;2022-07-29T06:21:07;7.57;;;7.07;;
7179;SDS011;3631;42.152;24.756;2022-07-29T06:23:35;8.43;;;7.82;;
7179;SDS011;3631;42.152;24.756;2022-07-29T06:26:03;8.73;;;7.93;;
7179;SDS011;3631;42.152;24.756;2022-07-29T06:28:30;8.52;;;7.78;;
7179;SDS011;3631;42.152;24.756;2022-07-29T06:30:57;8.60;;;7.85;;
7179;SDS011;3631;42.152;24.756;2022-07-29T06:33:25;8.25;;;7.75;;
7179;SDS011;3631;42.152;24.756;2022-07-29T06:35:52;11.30;;;8.65;;
7179;SDS011;3631;42.152;24.756;2022-07-29T06:38:19;8.50;;;7.72;;
7179;SDS011;3631;42.152;24.756;2022-07-29T06:40:46;8.82;;;8.07;;
7179;SDS011;3631;42.152;24.756;2022-07-29T06:43:30;8.93;;;8.15;;
7179;SDS011;3631;42.152;24.756;2022-07-29T06:46:01;8.98;;;7.97;;
7179;SDS011;3631;42.152;24.756;2022-07-29T06:48:31;8.48;;;7.97;;
7179;SDS011;3631;42.152;24.756;2022-07-29T06:50:58;8.93;;;8.00;;
7179;SDS011;3631;42.152;24.756;2022-07-29T06:53:25;8.70;;;8.00;;
7179;SDS011;3631;42.152;24.756;2022-07-29T06:55:52;8.63;;;8.23;;
7179;SDS011;3631;42.152;24.756;2022-07-29T06:58:19;8.57;;;7.90;;
7179;SDS011;3631;42.152;24.756;2022-07-29T07:00:46;8.95;;;8.15;;
7179;SDS011;3631;42.152;24.756;2022-07-29T07:03:14;9.27;;;8.43;;
7179;SDS011;3631;42.152;24.756;2022-07-29T07:05:43;8.80;;;8.05;;
7179;SDS011;3631;42.152;24.756;2022-07-29T07:08:10;9.07;;;7.70;;
7179;SDS011;3631;42.152;24.756;2022-07-29T07:10:38;9.65;;;8.75;;
7179;SDS011;3631;42.152;24.756;2022-07-29T07:13:05;8.38;;;7.75;;
7179;SDS011;3631;42.152;24.756;2022-07-29T07:15:33;9.25;;;8.65;;
7179;SDS011;3631;42.152;24.756;2022-07-29T07:18:01;10.52;;;9.65;;
7179;SDS011;3631;42.152;24.756;2022-07-29T07:20:28;9.77;;;8.82;;
7179;SDS011;3631;42.152;24.756;2022-07-29T07:22:57;8.95;;;8.15;;
7179;SDS011;3631;42.152;24.756;2022-07-29T07:25:24;8.57;;;7.95;;
7179;SDS011;3631;42.152;24.756;2022-07-29T07:27:51;8.88;;;8.20;;
7179;SDS011;3631;42.152;24.756;2022-07-29T07:30:18;9.05;;;8.23;;
7179;SDS011;3631;42.152;24.756;2022-07-29T07:32:45;8.65;;;7.78;;
7179;SDS011;3631;42.152;24.756;2022-07-29T07:35:12;8.93;;;8.13;;
7179;SDS011;3631;42.152;24.756;2022-07-29T07:37:39;8.18;;;7.65;;
7179;SDS011;3631;42.152;24.756;2022-07-29T07:40:09;11.35;;;8.50;;
7179;SDS011;3631;42.152;24.756;2022-07-29T07:42:37;9.20;;;8.60;;
7179;SDS011;3631;42.152;24.756;2022-07-29T07:45:05;11.23;;;9.88;;
7179;SDS011;3631;42.152;24.756;2022-07-29T07:47:34;8.95;;;8.15;;
7179;SDS011;3631;42.152;24.756;2022-07-29T07:50:01;11.18;;;8.75;;
7179;SDS011;3631;42.152;24.756;2022-07-29T07:52:29;8.45;;;7.82;;
7179;SDS011;3631;42.152;24.756;2022-07-29T07:54:56;7.80;;;7.07;;
7179;SDS011;3631;42.152;24.756;2022-07-29T07:57:24;7.25;;;6.38;;
7179;SDS011;3631;42.152;24.756;2022-07-29T07:59:51;9.93;;;5.57;;
7179;SDS011;3631;42.152;24.756;2022-07-29T08:02:18;11.65;;;5.43;;
7179;SDS011;3631;42.152;24.756;2022-07-29T08:04:45;5.95;;;5.28;;
7179;SDS011;3631;42.152;24.756;2022-07-29T08:07:12;5.95;;;4.35;;
7179;SDS011;3631;42.152;24.756;2022-07-29T08:09:40;4.88;;;4.57;;
7179;SDS011;3631;42.152;24.756;2022-07-29T08:12:07;6.35;;;4.82;;
7179;SDS011;3631;42.152;24.756;2022-07-29T08:14:35;4.90;;;4.50;;
7179;SDS011;3631;42.152;24.756;2022-07-29T08:17:02;4.70;;;4.30;;
7179;SDS011;3631;42.152;24.756;2022-07-29T08:19:29;5.15;;;4.75;;
7179;SDS011;3631;42.152;24.756;2022-07-29T08:21:56;5.38;;;4.10;;
7179;SDS011;3631;42.152;24.756;2022-07-29T08:24:23;4.93;;;4.50;;
7179;SDS011;3631;42.152;24.756;2022-07-29T08:27:07;4.53;;;4.32;;
7179;SDS011;3631;42.152;24.756;2022-07-29T08:29:35;4.53;;;4.22;;
7179;SDS011;3631;42.152;24.756;2022-07-29T08:32:03;4.80;;;4.40;;
7179;SDS011;3631;42.152;24.756;2022-07-29T08:34:30;4.15;;;3.85;;
7179;SDS011;3631;42.152;24.756;2022-07-29T08:36:58;4.50;;;3.90;;
7179;SDS011;3631;42.152;24.756;2022-07-29T08:39:25;4.40;;;4.20;;
7179;SDS011;3631;42.152;24.756;2022-07-29T08:41:52;4.38;;;3.72;;
7179;SDS011;3631;42.152;24.756;2022-07-29T08:44:20;3.92;;;3.50;;
7179;SDS011;3631;42.152;24.756;2022-07-29T08:46:49;3.85;;;3.35;;
7179;SDS011;3631;42.152;24.756;2022-07-29T08:49:16;3.92;;;3.72;;
7179;SDS011;3631;42.152;24.756;2022-07-29T08:51:43;4.20;;;3.88;;
7179;SDS011;3631;42.152;24.756;2022-07-29T08:54:11;5.13;;;4.35;;
7179;SDS011;3631;42.152;24.756;2022-07-29T08:56:42;4.03;;;3.72;;
7179;SDS011;3631;42.152;24.756;2022-07-29T08:59:09;4.20;;;4.00;;
7179;SDS011;3631;42.152;24.756;2022-07-29T09:01:37;4.93;;;4.53;;
7179;SDS011;3631;42.152;24.756;2022-07-29T09:04:09;4.43;;;4.00;;
7179;SDS011;3631;42.152;24.756;2022-07-29T09:06:39;4.57;;;4.28;;
7179;SDS011;3631;42.152;24.756;2022-07-29T09:09:10;4.28;;;3.95;;
7179;SDS011;3631;42.152;24.756;2022-07-29T09:11:39;4.43;;;4.03;;
7179;SDS011;3631;42.152;24.756;2022-07-29T09:14:06;4.05;;;3.85;;
7179;SDS011;3631;42.152;24.756;2022-07-29T09:16:47;5.07;;;4.68;;
7179;SDS011;3631;42.152;24.756;2022-07-29T09:19:27;4.97;;;4.65;;
7179;SDS011;3631;42.152;24.756;2022-07-29T09:21:55;5.43;;;5.03;;
7179;SDS011;3631;42.152;24.756;2022-07-29T09:24:42;4.82;;;4.32;;
7179;SDS011;3631;42.152;24.756;2022-07-29T09:27:11;4.45;;;3.80;;
7179;SDS011;3631;42.152;24.756;2022-07-29T09:29:46;8.38;;;4.30;;
7179;SDS011;3631;42.152;24.756;2022-07-29T09:32:21;5.38;;;4.30;;
7179;SDS011;3631;42.152;24.756;2022-07-29T09:34:49;4.90;;;4.40;;
7179;SDS011;3631;42.152;24.756;2022-07-29T09:37:25;7.10;;;4.60;;
7179;SDS011;3631;42.152;24.756;2022-07-29T09:39:53;4.10;;;3.90;;
7179;SDS011;3631;42.152;24.756;2022-07-29T09:42:27;4.45;;;4.13;;
7179;SDS011;3631;42.152;24.756;2022-07-29T09:44:54;4.13;;;3.83;;
7179;SDS011;3631;42.152;24.756;2022-07-29T09:47:22;3.97;;;3.55;;
7179;SDS011;3631;42.152;24.756;2022-07-29T09:49:53;5.60;;;4.10;;
7179;SDS011;3631;42.152;24.756;2022-07-29T09:52:22;4.72;;;4.22;;
7179;SDS011;3631;42.152;24.756;2022-07-29T09:54:50;4.35;;;4.00;;
7179;SDS011;3631;42.152;24.756;2022-07-29T09:57:22;4.30;;;4.00;;
7179;SDS011;3631;42.152;24.756;2022-07-29T09:59:56;4.40;;;4.00;;
7179;SDS011;3631;42.152;24.756;2022-07-29T10:02:28;4.00;;;3.80;;
7179;SDS011;3631;42.152;24.756;2022-07-29T10:04:58;3.70;;;3.50;;
7179;SDS011;3631;42.152;24.756;2022-07-29T10:07:26;4.32;;;3.85;;
7179;SDS011;3631;42.152;24.756;2022-07-29T10:10:08;4.93;;;3.58;;
7179;SDS011;3631;42.152;24.756;2022-07-29T10:12:44;4.15;;;3.80;;
7179;SDS011;3631;42.152;24.756;2022-07-29T10:15:16;4.53;;;4.30;;
7179;SDS011;3631;42.152;24.756;2022-07-29T10:17:44;3.72;;;3.45;;
7179;SDS011;3631;42.152;24.756;2022-07-29T10:20:13;3.60;;;3.40;;
7179;SDS011;3631;42.152;24.756;2022-07-29T10:22:40;3.80;;;3.50;;
7179;SDS011;3631;42.152;24.756;2022-07-29T10:25:09;4.45;;;4.25;;
7179;SDS011;3631;42.152;24.756;2022-07-29T10:27:36;4.18;;;3.97;;
7179;SDS011;3631;42.152;24.756;2022-07-29T10:30:04;4.30;;;4.00;;
7179;SDS011;3631;42.152;24.756;2022-07-29T10:32:42;4.97;;;4.57;;
7179;SDS011;3631;42.152;24.756;2022-07-29T10:35:25;4.10;;;3.80;;
7179;SDS011;3631;42.152;24.756;2022-07-29T10:38:21;4.15;;;3.95;;
7179;SDS011;3631;42.152;24.756;2022-07-29T10:41:03;4.93;;;4.40;;
7179;SDS011;3631;42.152;24.756;2022-07-29T10:43:54;5.38;;;4.72;;
7179;SDS011;3631;42.152;24.756;2022-07-29T10:46:24;4.50;;;4.22;;
7179;SDS011;3631;42.152;24.756;2022-07-29T10:52:04;4.60;;;4.20;;
7179;SDS011;3631;42.152;24.756;2022-07-29T10:54:39;4.25;;;3.95;;
7179;SDS011;3631;42.152;24.756;2022-07-29T10:57:15;7.38;;;4.65;;
7179;SDS011;3631;42.152;24.756;2022-07-29T10:59:46;6.90;;;4.38;;
7179;SDS011;3631;42.152;24.756;2022-07-29T11:05:17;4.65;;;4.38;;
7179;SDS011;3631;42.152;24.756;2022-07-29T11:14:03;4.72;;;3.95;;
7179;SDS011;3631;42.152;24.756;2022-07-29T11:19:27;4.97;;;4.50;;
7179;SDS011;3631;42.152;24.756;2022-07-29T11:21:54;4.63;;;4.20;;
7179;SDS011;3631;42.152;24.756;2022-07-29T11:24:23;5.13;;;4.78;;
7179;SDS011;3631;42.152;24.756;2022-07-29T11:27:08;4.93;;;4.30;;
7179;SDS011;3631;42.152;24.756;2022-07-29T11:29:53;4.90;;;4.55;;
7179;SDS011;3631;42.152;24.756;2022-07-29T11:32:21;4.45;;;4.20;;
7179;SDS011;3631;42.152;24.756;2022-07-29T11:35:10;5.03;;;4.45;;
7179;SDS011;3631;42.152;24.756;2022-07-29T11:37:38;4.47;;;4.10;;
7179;SDS011;3631;42.152;24.756;2022-07-29T11:40:10;4.72;;;3.90;;
7179;SDS011;3631;42.152;24.756;2022-07-29T11:42:45;4.95;;;4.65;;
7179;SDS011;3631;42.152;24.756;2022-07-29T11:45:14;5.07;;;4.72;;
7179;SDS011;3631;42.152;24.756;2022-07-29T11:47:51;4.93;;;4.25;;
7179;SDS011;3631;42.152;24.756;2022-07-29T11:50:27;4.35;;;4.05;;
7179;SDS011;3631;42.152;24.756;2022-07-29T11:52:59;5.05;;;4.50;;
7179;SDS011;3631;42.152;24.756;2022-07-29T11:55:31;4.65;;;4.35;;
7179;SDS011;3631;42.152;24.756;2022-07-29T11:58:00;6.47;;;4.60;;
7179;SDS011;3631;42.152;24.756;2022-07-29T12:00:29;4.40;;;4.20;;
7179;SDS011;3631;42.152;24.756;2022-07-29T12:03:00;4.20;;;3.90;;
7179;SDS011;3631;42.152;24.756;2022-07-29T12:05:33;5.00;;;4.57;;
7179;SDS011;3631;42.152;24.756;2022-07-29T12:08:04;4.72;;;4.40;;
7179;SDS011;3631;42.152;24.756;2022-07-29T12:10:37;5.43;;;4.22;;
7179;SDS011;3631;42.152;24.756;2022-07-29T12:13:05;4.53;;;4.30;;
7179;SDS011;3631;42.152;24.756;2022-07-29T12:15:33;4.35;;;4.05;;
7179;SDS011;3631;42.152;24.756;2022-07-29T12:18:09;4.95;;;3.95;;
7179;SDS011;3631;42.152;24.756;2022-07-29T12:20:43;4.32;;;4.07;;
7179;SDS011;3631;42.152;24.756;2022-07-29T12:23:11;4.75;;;3.80;;
7179;SDS011;3631;42.152;24.756;2022-07-29T12:25:40;8.30;;;3.67;;
7179;SDS011;3631;42.152;24.756;2022-07-29T12:28:09;3.95;;;3.65;;
7179;SDS011;3631;42.152;24.756;2022-07-29T12:30:39;5.25;;;4.15;;
7179;SDS011;3631;42.152;24.756;2022-07-29T12:33:11;4.38;;;4.07;;
7179;SDS011;3631;42.152;24.756;2022-07-29T12:35:39;3.95;;;3.60;;
7179;SDS011;3631;42.152;24.756;2022-07-29T12:38:06;4.05;;;3.70;;
7179;SDS011;3631;42.152;24.756;2022-07-29T12:40:36;4.72;;;4.43;;
7179;SDS011;3631;42.152;24.756;2022-07-29T12:43:12;4.20;;;4.00;;
7179;SDS011;3631;42.152;24.756;2022-07-29T12:45:43;4.97;;;4.43;;
7179;SDS011;3631;42.152;24.756;2022-07-29T12:48:12;4.00;;;3.80;;
7179;SDS011;3631;42.152;24.756;2022-07-29T12:53:26;6.07;;;4.00;;
7179;SDS011;3631;42.152;24.756;2022-07-29T12:55:54;4.22;;;4.03;;
7179;SDS011;3631;42.152;24.756;2022-07-29T12:58:30;4.57;;;4.15;;
7179;SDS011;3631;42.152;24.756;2022-07-29T13:01:03;4.28;;;3.88;;
7179;SDS011;3631;42.152;24.756;2022-07-29T13:03:42;4.80;;;4.40;;
7179;SDS011;3631;42.152;24.756;2022-07-29T13:09:00;5.28;;;4.72;;
7179;SDS011;3631;42.152;24.756;2022-07-29T13:11:30;5.85;;;4.70;;
7179;SDS011;3631;42.152;24.756;2022-07-29T13:13:59;4.22;;;4.03;;
7179;SDS011;3631;42.152;24.756;2022-07-29T13:16:27;5.28;;;4.88;;
7179;SDS011;3631;42.152;24.756;2022-07-29T13:19:03;6.70;;;4.90;;
7179;SDS011;3631;42.152;24.756;2022-07-29T13:21:31;5.00;;;4.80;;
7179;SDS011;3631;42.152;24.756;2022-07-29T13:23:58;7.50;;;4.65;;
7179;SDS011;3631;42.152;24.756;2022-07-29T13:26:25;5.13;;;4.93;;
7179;SDS011;3631;42.152;24.756;2022-07-29T13:28:54;6.18;;;5.53;;
7179;SDS011;3631;42.152;24.756;2022-07-29T13:31:22;5.28;;;4.88;;
7179;SDS011;3631;42.152;24.756;2022-07-29T13:33:49;5.07;;;4.45;;
7179;SDS011;3631;42.152;24.756;2022-07-29T13:36:16;5.20;;;4.80;;
7179;SDS011;3631;42.152;24.756;2022-07-29T13:38:43;5.15;;;4.85;;
7179;SDS011;3631;42.152;24.756;2022-07-29T13:41:10;5.30;;;5.00;;
7179;SDS011;3631;42.152;24.756;2022-07-29T13:43:37;5.43;;;4.80;;
7179;SDS011;3631;42.152;24.756;2022-07-29T13:46:04;5.55;;;4.88;;
7179;SDS011;3631;42.152;24.756;2022-07-29T13:48:32;5.30;;;4.80;;
7179;SDS011;3631;42.152;24.756;2022-07-29T13:50:59;4.88;;;4.50;;
7179;SDS011;3631;42.152;24.756;2022-07-29T13:53:30;5.68;;;5.22;;
7179;SDS011;3631;42.152;24.756;2022-07-29T13:55:57;5.18;;;4.78;;
7179;SDS011;3631;42.152;24.756;2022-07-29T13:58:25;5.57;;;5.05;;
7179;SDS011;3631;42.152;24.756;2022-07-29T14:00:51;4.78;;;4.47;;
7179;SDS011;3631;42.152;24.756;2022-07-29T14:03:18;5.03;;;4.60;;
7179;SDS011;3631;42.152;24.756;2022-07-29T14:05:47;5.18;;;4.68;;
7179;SDS011;3631;42.152;24.756;2022-07-29T14:08:14;4.78;;;4.35;;
7179;SDS011;3631;42.152;24.756;2022-07-29T14:10:41;4.95;;;4.55;;
7179;SDS011;3631;42.152;24.756;2022-07-29T14:13:08;6.35;;;5.95;;
7179;SDS011;3631;42.152;24.756;2022-07-29T14:15:34;4.53;;;4.32;;
7179;SDS011;3631;42.152;24.756;2022-07-29T14:18:01;6.30;;;3.90;;
7179;SDS011;3631;42.152;24.756;2022-07-29T14:20:28;6.40;;;4.10;;
7179;SDS011;3631;42.152;24.756;2022-07-29T14:22:57;4.72;;;4.35;;
7179;SDS011;3631;42.152;24.756;2022-07-29T14:25:24;4.45;;;4.10;;
7179;SDS011;3631;42.152;24.756;2022-07-29T14:27:51;4.20;;;4.00;;
7179;SDS011;3631;42.152;24.756;2022-07-29T14:30:19;6.63;;;4.80;;
7179;SDS011;3631;42.152;24.756;2022-07-29T14:32:46;6.38;;;4.25;;
7179;SDS011;3631;42.152;24.756;2022-07-29T14:35:13;4.38;;;3.97;;
7179;SDS011;3631;42.152;24.756;2022-07-29T14:37:40;4.07;;;3.78;;
7179;SDS011;3631;42.152;24.756;2022-07-29T14:40:09;4.38;;;4.05;;
7179;SDS011;3631;42.152;24.756;2022-07-29T14:42:36;4.65;;;4.07;;
7179;SDS011;3631;42.152;24.756;2022-07-29T14:45:04;3.92;;;3.70;;
7179;SDS011;3631;42.152;24.756;2022-07-29T14:47:32;4.18;;;3.88;;
7179;SDS011;3631;42.152;24.756;2022-07-29T14:49:59;8.85;;;3.72;;
7179;SDS011;3631;42.152;24.756;2022-07-29T14:52:26;7.70;;;3.60;;
7179;SDS011;3631;42.152;24.756;2022-07-29T14:54:53;4.25;;;3.95;;
7179;SDS011;3631;42.152;24.756;2022-07-29T14:57:21;4.10;;;3.80;;
7179;SDS011;3631;42.152;24.756;2022-07-29T14:59:48;4.15;;;3.85;;
7179;SDS011;3631;42.152;24.756;2022-07-29T15:02:15;4.35;;;3.65;;
7179;SDS011;3631;42.152;24.756;2022-07-29T15:04:42;3.88;;;3.67;;
7179;SDS011;3631;42.152;24.756;2022-07-29T15:07:11;4.47;;;4.22;;
7179;SDS011;3631;42.152;24.756;2022-07-29T15:09:38;5.95;;;3.85;;
7179;SDS011;3631;42.152;24.756;2022-07-29T15:12:05;4.18;;;3.85;;
7179;SDS011;3631;42.152;24.756;2022-07-29T15:14:34;4.00;;;3.72;;
7179;SDS011;3631;42.152;24.756;2022-07-29T15:17:01;4.50;;;4.00;;
7179;SDS011;3631;42.152;24.756;2022-07-29T15:19:28;4.47;;;4.07;;
7179;SDS011;3631;42.152;24.756;2022-07-29T15:21:55;4.03;;;3.75;;
7179;SDS011;3631;42.152;24.756;2022-07-29T15:24:22;4.85;;;4.13;;
7179;SDS011;3631;42.152;24.756;2022-07-29T15:26:49;5.30;;;3.80;;
7179;SDS011;3631;42.152;24.756;2022-07-29T15:29:16;4.13;;;3.75;;
7179;SDS011;3631;42.152;24.756;2022-07-29T15:31:44;4.70;;;4.40;;
7179;SDS011;3631;42.152;24.756;2022-07-29T15:34:11;4.40;;;4.10;;